sensor_id;sensor_type;location;lat;lon;timestamp;pressure;altitude;pressure_sealevel;temperature;humidity
21623;BME280;10973;46.706;12.340;2023-07-20T00:02:06;87406.31;;;17.51;61.77
21623;BME280;10973;46.706;12.340;2023-07-20T00:04:34;87401.88;;;17.45;61.55
21623;BME280;10973;46.706;12.340;2023-07-20T00:07:01;87396.94;;;17.43;61.77
21623;BME280;10973;46.706;12.340;2023-07-20T00:09:29;87392.78;;;17.42;61.46
21623;BME280;10973;46.706;12.340;2023-07-20T00:11:56;87381.50;;;17.35;61.46
21623;BME280;10973;46.706;12.340;2023-07-20T00:14:24;87375.50;;;17.31;61.63
21623;BME280;10973;46.706;12.340;2023-07-20T00:16:55;87366.47;;;17.25;61.46
21623;BME280;10973;46.706;12.340;2023-07-20T00:19:27;87372.22;;;17.23;61.58
21623;BME280;10973;46.706;12.340;2023-07-20T00:21:55;87365.78;;;17.21;61.55
21623;BME280;10973;46.706;12.340;2023-07-20T00:24:23;87366.59;;;17.18;61.59
21623;BME280;10973;46.706;12.340;2023-07-20T00:26:50;87364.38;;;17.16;61.07
21623;BME280;10973;46.706;12.340;2023-07-20T00:29:18;87375.47;;;17.11;60.81
21623;BME280;10973;46.706;12.340;2023-07-20T00:31:45;87364.56;;;17.05;61.12
21623;BME280;10973;46.706;12.340;2023-07-20T00:34:14;87355.81;;;17.05;61.49
21623;BME280;10973;46.706;12.340;2023-07-20T00:36:41;87352.81;;;17.03;61.48
21623;BME280;10973;46.706;12.340;2023-07-20T00:39:08;87358.13;;;17.03;61.36
21623;BME280;10973;46.706;12.340;2023-07-20T00:41:36;87360.50;;;16.97;61.60
21623;BME280;10973;46.706;12.340;2023-07-20T00:44:04;87370.13;;;16.91;61.58
21623;BME280;10973;46.706;12.340;2023-07-20T00:46:33;87360.97;;;16.92;61.64
21623;BME280;10973;46.706;12.340;2023-07-20T00:49:01;87362.16;;;16.91;61.32
21623;BME280;10973;46.706;12.340;2023-07-20T00:51:29;87354.63;;;16.86;61.27
21623;BME280;10973;46.706;12.340;2023-07-20T00:53:56;87354.69;;;16.83;61.37
21623;BME280;10973;46.706;12.340;2023-07-20T00:56:24;87352.03;;;16.83;61.32
21623;BME280;10973;46.706;12.340;2023-07-20T00:58:52;87343.41;;;16.75;61.30
21623;BME280;10973;46.706;12.340;2023-07-20T01:01:20;87347.22;;;16.74;61.00
21623;BME280;10973;46.706;12.340;2023-07-20T01:03:48;87345.78;;;16.70;61.12
21623;BME280;10973;46.706;12.340;2023-07-20T01:06:39;87347.72;;;16.69;61.41
21623;BME280;10973;46.706;12.340;2023-07-20T01:12:18;87341.34;;;16.63;61.08
21623;BME280;10973;46.706;12.340;2023-07-20T01:14:50;87349.38;;;16.60;61.21
21623;BME280;10973;46.706;12.340;2023-07-20T01:17:17;87342.56;;;16.59;61.20
21623;BME280;10973;46.706;12.340;2023-07-20T01:19:45;87357.06;;;16.54;60.94
21623;BME280;10973;46.706;12.340;2023-07-20T01:28:04;87365.63;;;16.42;60.96
21623;BME280;10973;46.706;12.340;2023-07-20T01:31:21;87374.75;;;16.41;61.10
21623;BME280;10973;46.706;12.340;2023-07-20T01:33:50;87373.72;;;16.35;61.14
21623;BME280;10973;46.706;12.340;2023-07-20T01:36:22;87382.06;;;16.33;60.99
21623;BME280;10973;46.706;12.340;2023-07-20T01:38:52;87387.81;;;16.32;61.31
21623;BME280;10973;46.706;12.340;2023-07-20T01:41:20;87384.72;;;16.33;61.46
21623;BME280;10973;46.706;12.340;2023-07-20T01:43:48;87385.13;;;16.32;61.43
21623;BME280;10973;46.706;12.340;2023-07-20T01:46:15;87375.31;;;16.29;61.03
21623;BME280;10973;46.706;12.340;2023-07-20T01:48:43;87369.59;;;16.30;60.68
21623;BME280;10973;46.706;12.340;2023-07-20T01:51:10;87376.84;;;16.26;60.76
21623;BME280;10973;46.706;12.340;2023-07-20T01:53:37;87375.03;;;16.23;60.77
21623;BME280;10973;46.706;12.340;2023-07-20T01:56:05;87368.59;;;16.21;60.99
21623;BME280;10973;46.706;12.340;2023-07-20T01:58:32;87380.38;;;16.20;61.07
21623;BME280;10973;46.706;12.340;2023-07-20T02:01:01;87383.09;;;16.16;60.90
21623;BME280;10973;46.706;12.340;2023-07-20T02:03:28;87382.75;;;16.14;60.86
21623;BME280;10973;46.706;12.340;2023-07-20T02:05:56;87379.75;;;16.12;61.04
21623;BME280;10973;46.706;12.340;2023-07-20T02:08:23;87379.00;;;16.12;61.17
21623;BME280;10973;46.706;12.340;2023-07-20T02:10:51;87380.53;;;16.09;61.13
21623;BME280;10973;46.706;12.340;2023-07-20T02:13:19;87368.38;;;16.08;61.09
21623;BME280;10973;46.706;12.340;2023-07-20T02:15:46;87364.25;;;16.07;60.99
21623;BME280;10973;46.706;12.340;2023-07-20T02:18:13;87372.63;;;16.06;60.80
21623;BME280;10973;46.706;12.340;2023-07-20T02:20:42;87371.19;;;16.01;60.85
21623;BME280;10973;46.706;12.340;2023-07-20T02:23:10;87358.28;;;16.00;60.79
21623;BME280;10973;46.706;12.340;2023-07-20T02:25:37;87367.00;;;16.00;60.93
21623;BME280;10973;46.706;12.340;2023-07-20T02:28:07;87373.97;;;15.91;60.76
21623;BME280;10973;46.706;12.340;2023-07-20T02:30:37;87367.59;;;15.85;60.57
21623;BME280;10973;46.706;12.340;2023-07-20T02:33:05;87365.34;;;15.83;61.29
21623;BME280;10973;46.706;12.340;2023-07-20T02:35:33;87368.75;;;15.84;61.16
21623;BME280;10973;46.706;12.340;2023-07-20T02:38:00;87352.50;;;15.78;61.07
21623;BME280;10973;46.706;12.340;2023-07-20T02:40:27;87362.03;;;15.76;61.01
21623;BME280;10973;46.706;12.340;2023-07-20T02:42:55;87358.22;;;15.77;61.28
21623;BME280;10973;46.706;12.340;2023-07-20T02:45:22;87355.63;;;15.73;61.59
21623;BME280;10973;46.706;12.340;2023-07-20T02:47:49;87357.88;;;15.75;61.55
21623;BME280;10973;46.706;12.340;2023-07-20T02:50:17;87354.84;;;15.73;61.57
21623;BME280;10973;46.706;12.340;2023-07-20T02:52:44;87361.72;;;15.70;61.49
21623;BME280;10973;46.706;12.340;2023-07-20T02:55:11;87354.59;;;15.63;61.54
21623;BME280;10973;46.706;12.340;2023-07-20T02:57:39;87358.81;;;15.61;61.53
21623;BME280;10973;46.706;12.340;2023-07-20T03:00:07;87356.19;;;15.57;61.47
21623;BME280;10973;46.706;12.340;2023-07-20T03:02:34;87361.88;;;15.59;61.20
21623;BME280;10973;46.706;12.340;2023-07-20T03:05:02;87355.03;;;15.58;61.30
21623;BME280;10973;46.706;12.340;2023-07-20T03:07:29;87363.00;;;15.58;61.44
21623;BME280;10973;46.706;12.340;2023-07-20T03:09:57;87361.16;;;15.55;61.18
21623;BME280;10973;46.706;12.340;2023-07-20T03:12:24;87357.41;;;15.53;61.15
21623;BME280;10973;46.706;12.340;2023-07-20T03:14:52;87364.63;;;15.52;61.58
21623;BME280;10973;46.706;12.340;2023-07-20T03:17:19;87366.97;;;15.47;61.58
21623;BME280;10973;46.706;12.340;2023-07-20T03:19:46;87360.09;;;15.49;61.07
21623;BME280;10973;46.706;12.340;2023-07-20T03:22:14;87366.59;;;15.45;60.97
21623;BME280;10973;46.706;12.340;2023-07-20T03:24:41;87361.31;;;15.41;61.19
21623;BME280;10973;46.706;12.340;2023-07-20T03:27:08;87364.75;;;15.38;61.27
21623;BME280;10973;46.706;12.340;2023-07-20T03:29:36;87367.06;;;15.36;61.00
21623;BME280;10973;46.706;12.340;2023-07-20T03:32:03;87363.69;;;15.32;61.15
21623;BME280;10973;46.706;12.340;2023-07-20T03:34:30;87362.94;;;15.32;61.43
21623;BME280;10973;46.706;12.340;2023-07-20T03:36:58;87366.00;;;15.30;61.42
21623;BME280;10973;46.706;12.340;2023-07-20T03:39:25;87367.53;;;15.28;61.09
21623;BME280;10973;46.706;12.340;2023-07-20T03:41:52;87371.41;;;15.23;61.16
21623;BME280;10973;46.706;12.340;2023-07-20T03:44:26;87373.69;;;15.21;61.19
21623;BME280;10973;46.706;12.340;2023-07-20T03:46:54;87365.75;;;15.18;61.14
21623;BME280;10973;46.706;12.340;2023-07-20T03:49:23;87363.84;;;15.18;61.08
21623;BME280;10973;46.706;12.340;2023-07-20T03:51:50;87366.91;;;15.17;61.17
21623;BME280;10973;46.706;12.340;2023-07-20T03:54:18;87364.63;;;15.19;61.13
21623;BME280;10973;46.706;12.340;2023-07-20T03:56:45;87371.13;;;15.14;61.27
21623;BME280;10973;46.706;12.340;2023-07-20T03:59:12;87371.47;;;15.16;61.40
21623;BME280;10973;46.706;12.340;2023-07-20T04:01:40;87355.91;;;15.18;61.37
21623;BME280;10973;46.706;12.340;2023-07-20T04:04:08;87363.16;;;15.14;61.13
21623;BME280;10973;46.706;12.340;2023-07-20T04:06:35;87362.44;;;15.10;60.67
21623;BME280;10973;46.706;12.340;2023-07-20T04:09:03;87365.09;;;15.10;61.20
21623;BME280;10973;46.706;12.340;2023-07-20T04:11:30;87366.22;;;15.09;61.08
21623;BME280;10973;46.706;12.340;2023-07-20T04:13:58;87366.66;;;15.08;61.24
21623;BME280;10973;46.706;12.340;2023-07-20T04:16:26;87366.28;;;15.06;61.15
21623;BME280;10973;46.706;12.340;2023-07-20T04:18:56;87381.47;;;15.05;61.39
21623;BME280;10973;46.706;12.340;2023-07-20T04:21:26;87378.03;;;15.05;61.31
21623;BME280;10973;46.706;12.340;2023-07-20T04:23:54;87383.34;;;15.05;61.31
21623;BME280;10973;46.706;12.340;2023-07-20T04:26:21;87378.81;;;15.05;61.53
21623;BME280;10973;46.706;12.340;2023-07-20T04:28:49;87377.28;;;15.04;61.90
21623;BME280;10973;46.706;12.340;2023-07-20T04:31:16;87380.69;;;15.05;61.33
21623;BME280;10973;46.706;12.340;2023-07-20T04:33:44;87380.69;;;15.05;61.64
21623;BME280;10973;46.706;12.340;2023-07-20T04:36:11;87371.28;;;15.00;61.71
21623;BME280;10973;46.706;12.340;2023-07-20T04:38:39;87382.66;;;14.97;61.81
21623;BME280;10973;46.706;12.340;2023-07-20T04:41:06;87377.75;;;14.99;61.45
21623;BME280;10973;46.706;12.340;2023-07-20T04:43:33;87378.50;;;14.96;61.56
21623;BME280;10973;46.706;12.340;2023-07-20T04:46:01;87381.53;;;14.98;61.77
21623;BME280;10973;46.706;12.340;2023-07-20T04:48:28;87385.69;;;14.99;61.95
21623;BME280;10973;46.706;12.340;2023-07-20T04:50:56;87380.00;;;14.97;62.01
21623;BME280;10973;46.706;12.340;2023-07-20T04:53:23;87391.38;;;15.01;62.07
21623;BME280;10973;46.706;12.340;2023-07-20T04:55:51;87394.44;;;14.96;61.97
21623;BME280;10973;46.706;12.340;2023-07-20T04:58:21;87383.41;;;14.97;61.90
21623;BME280;10973;46.706;12.340;2023-07-20T05:00:50;87394.78;;;14.98;61.84
21623;BME280;10973;46.706;12.340;2023-07-20T05:03:18;87388.38;;;14.95;61.96
21623;BME280;10973;46.706;12.340;2023-07-20T05:05:47;87391.03;;;14.95;62.14
21623;BME280;10973;46.706;12.340;2023-07-20T05:08:16;87391.78;;;14.96;62.01
21623;BME280;10973;46.706;12.340;2023-07-20T05:10:44;87387.63;;;14.95;61.97
21623;BME280;10973;46.706;12.340;2023-07-20T05:13:12;87392.56;;;14.93;61.99
21623;BME280;10973;46.706;12.340;2023-07-20T05:15:40;87388.03;;;14.93;62.11
21623;BME280;10973;46.706;12.340;2023-07-20T05:18:07;87393.69;;;14.95;62.07
21623;BME280;10973;46.706;12.340;2023-07-20T05:20:35;87386.47;;;14.96;62.05
21623;BME280;10973;46.706;12.340;2023-07-20T05:23:03;87388.78;;;14.94;62.06
21623;BME280;10973;46.706;12.340;2023-07-20T05:25:31;87392.13;;;14.98;62.26
21623;BME280;10973;46.706;12.340;2023-07-20T05:27:59;87379.63;;;14.98;62.28
21623;BME280;10973;46.706;12.340;2023-07-20T05:30:27;87371.69;;;14.95;62.47
21623;BME280;10973;46.706;12.340;2023-07-20T05:32:55;87379.66;;;14.95;62.33
21623;BME280;10973;46.706;12.340;2023-07-20T05:35:23;87379.63;;;14.98;62.48
21623;BME280;10973;46.706;12.340;2023-07-20T05:37:53;87377.69;;;15.02;62.60
21623;BME280;10973;46.706;12.340;2023-07-20T05:40:21;87372.31;;;15.06;62.51
21623;BME280;10973;46.706;12.340;2023-07-20T05:42:49;87370.41;;;15.10;62.66
21623;BME280;10973;46.706;12.340;2023-07-20T05:45:16;87371.06;;;15.18;62.43
21623;BME280;10973;46.706;12.340;2023-07-20T05:47:44;87375.91;;;15.26;62.64
21623;BME280;10973;46.706;12.340;2023-07-20T05:50:11;87374.31;;;15.32;63.08
21623;BME280;10973;46.706;12.340;2023-07-20T05:52:39;87371.94;;;15.41;63.03
21623;BME280;10973;46.706;12.340;2023-07-20T05:55:08;87369.22;;;15.48;62.87
21623;BME280;10973;46.706;12.340;2023-07-20T05:57:35;87372.94;;;15.54;63.13
21623;BME280;10973;46.706;12.340;2023-07-20T06:00:03;87369.44;;;15.61;63.14
21623;BME280;10973;46.706;12.340;2023-07-20T06:02:30;87370.50;;;15.67;63.15
21623;BME280;10973;46.706;12.340;2023-07-20T06:04:58;87365.44;;;15.76;63.24
21623;BME280;10973;46.706;12.340;2023-07-20T06:07:26;87362.31;;;15.81;63.59
21623;BME280;10973;46.706;12.340;2023-07-20T06:09:56;87365.28;;;15.87;63.52
21623;BME280;10973;46.706;12.340;2023-07-20T06:12:24;87360.31;;;15.89;63.74
21623;BME280;10973;46.706;12.340;2023-07-20T06:14:55;87359.47;;;15.95;63.63
21623;BME280;10973;46.706;12.340;2023-07-20T06:17:23;87359.03;;;16.00;63.50
21623;BME280;10973;46.706;12.340;2023-07-20T06:19:53;87361.25;;;16.05;63.68
21623;BME280;10973;46.706;12.340;2023-07-20T06:22:21;87354.31;;;16.11;63.42
21623;BME280;10973;46.706;12.340;2023-07-20T06:24:53;87354.97;;;16.19;63.56
21623;BME280;10973;46.706;12.340;2023-07-20T06:27:24;87354.84;;;16.26;63.46
21623;BME280;10973;46.706;12.340;2023-07-20T06:29:52;87356.22;;;16.34;63.63
21623;BME280;10973;46.706;12.340;2023-07-20T06:32:20;87352.72;;;16.40;63.92
21623;BME280;10973;46.706;12.340;2023-07-20T06:34:47;87356.78;;;16.49;64.28
21623;BME280;10973;46.706;12.340;2023-07-20T06:37:14;87350.94;;;16.57;64.16
21623;BME280;10973;46.706;12.340;2023-07-20T06:39:42;87350.06;;;16.64;63.88
21623;BME280;10973;46.706;12.340;2023-07-20T06:42:12;87346.28;;;16.65;63.65
21623;BME280;10973;46.706;12.340;2023-07-20T06:44:39;87347.59;;;16.76;63.07
21623;BME280;10973;46.706;12.340;2023-07-20T06:47:07;87337.16;;;16.85;62.80
21623;BME280;10973;46.706;12.340;2023-07-20T06:49:34;87336.69;;;16.90;62.84
21623;BME280;10973;46.706;12.340;2023-07-20T06:52:02;87330.84;;;16.99;62.83
21623;BME280;10973;46.706;12.340;2023-07-20T06:54:29;87331.56;;;16.99;62.79
21623;BME280;10973;46.706;12.340;2023-07-20T06:57:01;87326.19;;;17.03;62.92
21623;BME280;10973;46.706;12.340;2023-07-20T06:59:44;87328.31;;;17.11;62.72
21623;BME280;10973;46.706;12.340;2023-07-20T07:02:16;87329.31;;;17.18;62.62
21623;BME280;10973;46.706;12.340;2023-07-20T07:04:49;87333.09;;;17.20;63.10
21623;BME280;10973;46.706;12.340;2023-07-20T07:07:26;87329.47;;;17.30;62.32
21623;BME280;10973;46.706;12.340;2023-07-20T07:09:54;87327.81;;;17.36;62.24
21623;BME280;10973;46.706;12.340;2023-07-20T07:12:21;87328.16;;;17.38;62.17
21623;BME280;10973;46.706;12.340;2023-07-20T07:14:49;87333.66;;;17.51;62.08
21623;BME280;10973;46.706;12.340;2023-07-20T07:17:16;87336.19;;;17.58;61.98
21623;BME280;10973;46.706;12.340;2023-07-20T07:19:46;87329.63;;;17.62;62.19
21623;BME280;10973;46.706;12.340;2023-07-20T07:22:15;87329.47;;;17.69;62.11
21623;BME280;10973;46.706;12.340;2023-07-20T07:24:43;87337.28;;;17.76;62.15
21623;BME280;10973;46.706;12.340;2023-07-20T07:27:11;87330.25;;;17.86;62.03
21623;BME280;10973;46.706;12.340;2023-07-20T07:29:38;87331.28;;;17.92;62.27
21623;BME280;10973;46.706;12.340;2023-07-20T07:32:06;87326.44;;;18.03;62.39
21623;BME280;10973;46.706;12.340;2023-07-20T07:34:33;87326.31;;;18.10;62.32
21623;BME280;10973;46.706;12.340;2023-07-20T07:37:01;87316.69;;;18.13;61.71
21623;BME280;10973;46.706;12.340;2023-07-20T07:39:28;87323.06;;;18.19;61.57
21623;BME280;10973;46.706;12.340;2023-07-20T07:42:01;87318.97;;;18.30;61.15
21623;BME280;10973;46.706;12.340;2023-07-20T07:44:28;87322.97;;;18.38;61.47
21623;BME280;10973;46.706;12.340;2023-07-20T07:46:55;87315.94;;;18.44;61.25
21623;BME280;10973;46.706;12.340;2023-07-20T07:49:23;87313.91;;;18.52;60.95
21623;BME280;10973;46.706;12.340;2023-07-20T07:51:50;87315.31;;;18.57;60.23
21623;BME280;10973;46.706;12.340;2023-07-20T07:54:18;87309.81;;;18.64;60.25
21623;BME280;10973;46.706;12.340;2023-07-20T07:56:45;87317.22;;;18.72;60.58
21623;BME280;10973;46.706;12.340;2023-07-20T07:59:12;87312.13;;;18.78;60.22
21623;BME280;10973;46.706;12.340;2023-07-20T08:01:40;87313.44;;;18.86;60.19
21623;BME280;10973;46.706;12.340;2023-07-20T08:04:07;87299.09;;;18.96;60.63
21623;BME280;10973;46.706;12.340;2023-07-20T08:06:34;87302.41;;;19.00;60.34
21623;BME280;10973;46.706;12.340;2023-07-20T08:09:02;87298.38;;;19.08;60.12
21623;BME280;10973;46.706;12.340;2023-07-20T08:11:29;87299.25;;;19.17;59.72
21623;BME280;10973;46.706;12.340;2023-07-20T08:13:57;87298.13;;;19.31;59.29
21623;BME280;10973;46.706;12.340;2023-07-20T08:16:31;87298.28;;;19.40;58.14
21623;BME280;10973;46.706;12.340;2023-07-20T08:18:59;87296.81;;;19.52;57.81
21623;BME280;10973;46.706;12.340;2023-07-20T08:21:27;87303.38;;;19.63;56.60
21623;BME280;10973;46.706;12.340;2023-07-20T08:23:54;87293.66;;;19.69;56.20
21623;BME280;10973;46.706;12.340;2023-07-20T08:26:23;87285.34;;;19.80;56.06
21623;BME280;10973;46.706;12.340;2023-07-20T08:28:51;87290.78;;;19.89;56.00
21623;BME280;10973;46.706;12.340;2023-07-20T08:31:19;87288.66;;;19.97;54.34
21623;BME280;10973;46.706;12.340;2023-07-20T08:33:46;87279.56;;;20.07;54.11
21623;BME280;10973;46.706;12.340;2023-07-20T08:36:14;87286.22;;;20.15;54.24
21623;BME280;10973;46.706;12.340;2023-07-20T08:38:42;87283.31;;;20.22;55.44
21623;BME280;10973;46.706;12.340;2023-07-20T08:41:09;87282.47;;;20.25;56.15
21623;BME280;10973;46.706;12.340;2023-07-20T08:43:39;87276.91;;;20.32;55.99
21623;BME280;10973;46.706;12.340;2023-07-20T08:46:10;87272.41;;;20.41;56.56
21623;BME280;10973;46.706;12.340;2023-07-20T08:48:42;87268.75;;;20.48;56.70
21623;BME280;10973;46.706;12.340;2023-07-20T08:51:11;87265.22;;;20.51;57.89
21623;BME280;10973;46.706;12.340;2023-07-20T08:53:39;87271.84;;;20.59;57.40
21623;BME280;10973;46.706;12.340;2023-07-20T08:56:09;87266.88;;;20.70;57.08
21623;BME280;10973;46.706;12.340;2023-07-20T08:58:37;87264.28;;;20.79;57.47
21623;BME280;10973;46.706;12.340;2023-07-20T09:01:06;87266.28;;;20.88;56.73
21623;BME280;10973;46.706;12.340;2023-07-20T09:03:34;87262.31;;;20.92;55.85
21623;BME280;10973;46.706;12.340;2023-07-20T09:06:02;87262.06;;;20.99;56.17
21623;BME280;10973;46.706;12.340;2023-07-20T09:08:29;87258.03;;;21.07;57.78
21623;BME280;10973;46.706;12.340;2023-07-20T09:10:57;87256.81;;;21.08;55.61
21623;BME280;10973;46.706;12.340;2023-07-20T09:13:25;87257.78;;;21.14;54.97
21623;BME280;10973;46.706;12.340;2023-07-20T09:15:54;87253.78;;;21.19;56.29
21623;BME280;10973;46.706;12.340;2023-07-20T09:18:31;87253.34;;;21.20;57.74
21623;BME280;10973;46.706;12.340;2023-07-20T09:21:03;87255.91;;;21.24;58.97
21623;BME280;10973;46.706;12.340;2023-07-20T09:23:38;87259.78;;;21.23;59.15
21623;BME280;10973;46.706;12.340;2023-07-20T09:26:14;87254.53;;;21.19;58.49
21623;BME280;10973;46.706;12.340;2023-07-20T09:28:44;87246.47;;;21.19;58.72
21623;BME280;10973;46.706;12.340;2023-07-20T09:31:19;87250.81;;;21.17;58.53
21623;BME280;10973;46.706;12.340;2023-07-20T09:33:48;87249.09;;;21.10;58.65
21623;BME280;10973;46.706;12.340;2023-07-20T09:36:19;87252.84;;;21.13;58.54
21623;BME280;10973;46.706;12.340;2023-07-20T09:39:06;87252.41;;;21.14;60.10
21623;BME280;10973;46.706;12.340;2023-07-20T09:41:43;87248.84;;;21.17;60.21
21623;BME280;10973;46.706;12.340;2023-07-20T09:44:15;87247.38;;;21.16;59.87
21623;BME280;10973;46.706;12.340;2023-07-20T09:46:47;87247.38;;;21.16;59.18
21623;BME280;10973;46.706;12.340;2023-07-20T09:49:18;87244.38;;;21.14;58.58
21623;BME280;10973;46.706;12.340;2023-07-20T09:51:49;87245.09;;;21.15;57.78
21623;BME280;10973;46.706;12.340;2023-07-20T09:54:18;87242.00;;;21.16;57.65
21623;BME280;10973;46.706;12.340;2023-07-20T09:56:47;87234.91;;;21.22;58.47
21623;BME280;10973;46.706;12.340;2023-07-20T09:59:16;87231.41;;;21.35;58.39
21623;BME280;10973;46.706;12.340;2023-07-20T10:01:46;87228.03;;;21.43;58.22
21623;BME280;10973;46.706;12.340;2023-07-20T10:04:16;87235.06;;;21.50;57.33
21623;BME280;10973;46.706;12.340;2023-07-20T10:06:49;87232.00;;;21.60;56.20
21623;BME280;10973;46.706;12.340;2023-07-20T10:09:18;87235.31;;;21.64;57.47
21623;BME280;10973;46.706;12.340;2023-07-20T10:11:51;87231.94;;;21.73;59.02
21623;BME280;10973;46.706;12.340;2023-07-20T10:14:46;87234.72;;;21.91;56.61
21623;BME280;10973;46.706;12.340;2023-07-20T10:17:17;87228.53;;;22.03;53.61
21623;BME280;10973;46.706;12.340;2023-07-20T10:19:52;87229.47;;;22.18;52.90
21623;BME280;10973;46.706;12.340;2023-07-20T10:22:27;87223.69;;;22.29;50.28
21623;BME280;10973;46.706;12.340;2023-07-20T10:24:54;87229.25;;;22.43;44.36
21623;BME280;10973;46.706;12.340;2023-07-20T10:27:22;87227.78;;;22.51;45.43
21623;BME280;10973;46.706;12.340;2023-07-20T10:29:52;87228.97;;;22.50;43.54
21623;BME280;10973;46.706;12.340;2023-07-20T10:32:21;87226.91;;;22.54;42.35
21623;BME280;10973;46.706;12.340;2023-07-20T10:34:53;87221.88;;;22.65;44.78
21623;BME280;10973;46.706;12.340;2023-07-20T10:38:04;87220.72;;;22.76;44.21
21623;BME280;10973;46.706;12.340;2023-07-20T10:40:38;87221.00;;;22.87;41.46
21623;BME280;10973;46.706;12.340;2023-07-20T10:43:08;87212.06;;;22.99;40.73
21623;BME280;10973;46.706;12.340;2023-07-20T10:45:52;87212.38;;;23.19;42.24
21623;BME280;10973;46.706;12.340;2023-07-20T10:48:22;87215.06;;;23.28;43.74
21623;BME280;10973;46.706;12.340;2023-07-20T10:51:29;87207.13;;;23.33;40.37
21623;BME280;10973;46.706;12.340;2023-07-20T10:53:57;87211.34;;;23.44;41.64
21623;BME280;10973;46.706;12.340;2023-07-20T10:56:28;87209.69;;;23.55;42.74
21623;BME280;10973;46.706;12.340;2023-07-20T10:59:00;87201.13;;;23.66;40.25
21623;BME280;10973;46.706;12.340;2023-07-20T11:01:30;87211.56;;;23.82;41.56
21623;BME280;10973;46.706;12.340;2023-07-20T11:03:59;87206.16;;;23.91;41.96
21623;BME280;10973;46.706;12.340;2023-07-20T11:09:09;87210.91;;;24.14;39.22
21623;BME280;10973;46.706;12.340;2023-07-20T11:11:44;87205.78;;;24.16;41.64
21623;BME280;10973;46.706;12.340;2023-07-20T11:14:25;87202.47;;;24.30;42.19
21623;BME280;10973;46.706;12.340;2023-07-20T11:16:53;87190.56;;;24.46;41.49
21623;BME280;10973;46.706;12.340;2023-07-20T11:19:23;87193.16;;;24.64;39.78
21623;BME280;10973;46.706;12.340;2023-07-20T11:21:57;87192.97;;;24.67;39.79
21623;BME280;10973;46.706;12.340;2023-07-20T11:24:27;87194.56;;;24.50;39.14
21623;BME280;10973;46.706;12.340;2023-07-20T11:26:55;87194.34;;;24.39;39.73
21623;BME280;10973;46.706;12.340;2023-07-20T11:29:24;87209.34;;;24.22;40.43
21623;BME280;10973;46.706;12.340;2023-07-20T11:32:02;87199.22;;;24.08;40.40
21623;BME280;10973;46.706;12.340;2023-07-20T11:34:33;87202.38;;;24.06;41.32
21623;BME280;10973;46.706;12.340;2023-07-20T11:37:01;87197.44;;;24.05;42.26
21623;BME280;10973;46.706;12.340;2023-07-20T11:39:31;87195.81;;;24.07;42.71
21623;BME280;10973;46.706;12.340;2023-07-20T11:41:58;87192.94;;;24.02;42.69
21623;BME280;10973;46.706;12.340;2023-07-20T11:44:29;87186.09;;;24.01;42.46
21623;BME280;10973;46.706;12.340;2023-07-20T11:47:11;87182.06;;;23.96;43.33
21623;BME280;10973;46.706;12.340;2023-07-20T11:49:43;87182.69;;;23.91;43.38
21623;BME280;10973;46.706;12.340;2023-07-20T11:52:14;87184.63;;;23.91;42.58
21623;BME280;10973;46.706;12.340;2023-07-20T11:54:43;87182.50;;;23.95;43.06
21623;BME280;10973;46.706;12.340;2023-07-20T11:57:19;87179.84;;;23.86;42.85
21623;BME280;10973;46.706;12.340;2023-07-20T11:59:57;87185.38;;;23.91;41.60
21623;BME280;10973;46.706;12.340;2023-07-20T12:02:27;87187.31;;;23.91;41.56
21623;BME280;10973;46.706;12.340;2023-07-20T12:04:56;87182.78;;;23.97;43.11
21623;BME280;10973;46.706;12.340;2023-07-20T12:07:28;87178.28;;;24.12;43.72
21623;BME280;10973;46.706;12.340;2023-07-20T12:10:12;87169.63;;;24.41;43.13
21623;BME280;10973;46.706;12.340;2023-07-20T12:12:42;87168.94;;;24.55;41.82
21623;BME280;10973;46.706;12.340;2023-07-20T12:15:26;87162.06;;;24.54;42.53
21623;BME280;10973;46.706;12.340;2023-07-20T12:17:57;87168.16;;;24.63;41.30
21623;BME280;10973;46.706;12.340;2023-07-20T12:20:37;87167.03;;;24.79;41.51
21623;BME280;10973;46.706;12.340;2023-07-20T12:23:09;87159.34;;;24.87;40.81
21623;BME280;10973;46.706;12.340;2023-07-20T12:25:42;87158.94;;;24.79;39.49
21623;BME280;10973;46.706;12.340;2023-07-20T12:28:14;87149.50;;;24.74;39.08
21623;BME280;10973;46.706;12.340;2023-07-20T12:30:44;87155.09;;;24.71;40.55
21623;BME280;10973;46.706;12.340;2023-07-20T12:33:13;87156.84;;;24.74;39.82
21623;BME280;10973;46.706;12.340;2023-07-20T12:35:40;87157.50;;;24.69;40.33
21623;BME280;10973;46.706;12.340;2023-07-20T12:38:08;87148.75;;;24.74;40.72
21623;BME280;10973;46.706;12.340;2023-07-20T12:40:38;87147.28;;;24.73;41.15
21623;BME280;10973;46.706;12.340;2023-07-20T12:43:06;87147.56;;;24.75;42.10
21623;BME280;10973;46.706;12.340;2023-07-20T12:45:37;87149.94;;;24.82;42.14
21623;BME280;10973;46.706;12.340;2023-07-20T12:48:04;87140.88;;;24.94;42.27
21623;BME280;10973;46.706;12.340;2023-07-20T12:50:32;87138.50;;;25.25;41.47
21623;BME280;10973;46.706;12.340;2023-07-20T12:52:59;87136.63;;;25.55;39.73
21623;BME280;10973;46.706;12.340;2023-07-20T12:55:27;87135.84;;;25.84;39.59
21623;BME280;10973;46.706;12.340;2023-07-20T12:57:54;87139.03;;;26.11;39.03
21623;BME280;10973;46.706;12.340;2023-07-20T13:00:21;87132.28;;;26.22;37.77
21623;BME280;10973;46.706;12.340;2023-07-20T13:02:52;87136.16;;;26.35;39.10
21623;BME280;10973;46.706;12.340;2023-07-20T13:05:35;87128.84;;;26.56;38.20
21623;BME280;10973;46.706;12.340;2023-07-20T13:08:06;87130.00;;;26.69;37.82
21623;BME280;10973;46.706;12.340;2023-07-20T13:10:36;87128.19;;;26.61;37.83
21623;BME280;10973;46.706;12.340;2023-07-20T13:13:04;87133.53;;;26.55;38.20
21623;BME280;10973;46.706;12.340;2023-07-20T13:15:41;87128.13;;;26.55;38.85